createdAt,value
2023-01-20T00:00:40.625Z,23.88
2023-01-20T00:02:12.068Z,19.54
2023-01-20T00:03:43.756Z,23.09
2023-01-20T00:05:15.536Z,25.33
2023-01-20T00:06:46.959Z,25.55
2023-01-20T00:08:18.289Z,25.26
2023-01-20T00:09:49.573Z,25.11
2023-01-20T00:11:20.968Z,24.10
2023-01-20T00:12:52.208Z,24.22
2023-01-20T00:14:23.593Z,23.84
2023-01-20T00:15:54.876Z,22.54
2023-01-20T00:17:26.169Z,24.67
2023-01-20T00:18:57.416Z,24.85
2023-01-20T00:20:28.689Z,20.48
2023-01-20T00:22:00.092Z,19.55
2023-01-20T00:23:31.716Z,25.06
2023-01-20T00:25:03.188Z,23.00
2023-01-20T00:26:34.396Z,19.77
2023-01-20T00:28:05.640Z,22.45
2023-01-20T00:29:37.064Z,25.04
2023-01-20T00:31:08.362Z,26.18
2023-01-20T00:32:39.709Z,26.96
2023-01-20T00:34:11.021Z,24.89
2023-01-20T00:35:42.349Z,23.07
2023-01-20T00:37:13.755Z,23.24
2023-01-20T00:38:45.028Z,23.03
2023-01-20T00:40:16.374Z,26.08
2023-01-20T00:41:47.551Z,25.19
2023-01-20T00:43:18.826Z,26.13
2023-01-20T00:44:50.191Z,22.91
2023-01-20T00:46:21.531Z,23.76
2023-01-20T00:47:52.947Z,23.43
2023-01-20T00:49:25.377Z,23.65
2023-01-20T00:50:56.677Z,24.69
2023-01-20T00:52:27.871Z,23.16
2023-01-20T00:53:59.093Z,17.08
2023-01-20T00:55:30.647Z,21.80
2023-01-20T00:57:01.921Z,21.14
2023-01-20T00:58:33.436Z,17.86
2023-01-20T01:00:04.840Z,20.94
2023-01-20T01:01:36.379Z,22.29
2023-01-20T01:03:07.748Z,22.46
2023-01-20T01:04:38.979Z,18.46
2023-01-20T01:06:10.274Z,14.89
2023-01-20T01:07:41.683Z,18.70
2023-01-20T01:09:12.911Z,15.80
2023-01-20T01:10:44.304Z,18.58
2023-01-20T01:12:15.685Z,23.90
2023-01-20T01:13:46.880Z,22.07
2023-01-20T01:15:18.280Z,23.42
2023-01-20T01:16:49.570Z,24.80
2023-01-20T01:18:20.876Z,21.33
2023-01-20T01:19:52.391Z,14.68
2023-01-20T01:21:23.591Z,18.63
2023-01-20T01:22:54.876Z,22.45
2023-01-20T01:24:26.096Z,23.57
2023-01-20T01:25:57.775Z,15.58
2023-01-20T01:27:29.041Z,23.67
2023-01-20T01:29:00.532Z,24.53
2023-01-20T01:30:32.040Z,23.76
2023-01-20T01:32:03.165Z,17.90
2023-01-20T01:33:34.284Z,23.09
2023-01-20T01:35:05.545Z,23.87
2023-01-20T01:36:36.865Z,26.74
2023-01-20T01:38:08.806Z,20.88
2023-01-20T01:39:39.940Z,18.15
2023-01-20T01:41:11.088Z,26.74
2023-01-20T01:42:42.953Z,23.93
2023-01-20T01:44:14.375Z,26.56
2023-01-20T01:45:45.765Z,28.02
2023-01-20T01:47:17.087Z,24.64
2023-01-20T01:48:48.458Z,28.13
2023-01-20T01:50:19.742Z,25.07
2023-01-20T01:51:51.155Z,16.97
2023-01-20T01:53:23.852Z,25.55
2023-01-20T01:54:54.995Z,20.85
2023-01-20T01:56:26.417Z,25.71
2023-01-20T01:57:57.655Z,29.86
2023-01-20T01:59:28.992Z,28.34
2023-01-20T02:01:00.273Z,26.26
2023-01-20T02:02:32.995Z,27.14
2023-01-20T02:04:04.437Z,26.08
2023-01-20T02:05:35.720Z,28.45
2023-01-20T02:07:07.048Z,28.65
2023-01-20T02:08:38.270Z,26.20
2023-01-20T02:10:09.790Z,29.00
2023-01-20T02:11:41.150Z,29.49
2023-01-20T02:13:12.488Z,27.30
2023-01-20T02:14:44.037Z,27.29
2023-01-20T02:16:15.182Z,27.50
2023-01-20T02:17:46.596Z,28.40
2023-01-20T02:19:17.839Z,28.76
2023-01-20T02:20:49.209Z,28.15
2023-01-20T02:22:20.606Z,27.53
2023-01-20T02:23:52.011Z,26.79
2023-01-20T02:25:23.579Z,26.64
2023-01-20T02:26:54.954Z,26.80
2023-01-20T02:28:26.137Z,26.32
2023-01-20T02:29:57.430Z,26.24
2023-01-20T02:31:28.729Z,25.25
2023-01-20T02:32:59.986Z,26.93
2023-01-20T02:34:31.385Z,26.05
2023-01-20T02:36:02.528Z,26.27
2023-01-20T02:37:33.751Z,26.74
2023-01-20T02:39:04.948Z,26.99
2023-01-20T02:40:36.348Z,23.39
2023-01-20T02:42:08.012Z,24.18
2023-01-20T02:43:39.333Z,23.28
2023-01-20T02:45:10.602Z,27.78
2023-01-20T02:46:41.855Z,28.36
2023-01-20T02:48:12.984Z,29.13
2023-01-20T02:49:44.412Z,29.72
2023-01-20T02:51:15.843Z,28.36
2023-01-20T02:52:46.973Z,22.69
2023-01-20T02:54:18.203Z,24.08
2023-01-20T02:55:49.371Z,22.84
2023-01-20T02:57:20.673Z,23.66
2023-01-20T02:58:52.274Z,16.49
2023-01-20T03:00:23.780Z,16.45
2023-01-20T03:01:55.366Z,14.18
2023-01-20T03:03:26.719Z,24.14
2023-01-20T03:04:58.023Z,24.53
2023-01-20T03:06:29.213Z,25.52
2023-01-20T03:08:00.594Z,26.24
2023-01-20T03:09:31.977Z,28.80
2023-01-20T03:11:03.352Z,26.59
2023-01-20T03:12:34.656Z,23.73
2023-01-20T03:14:05.918Z,19.59
2023-01-20T03:15:37.249Z,23.05
2023-01-20T03:17:08.526Z,21.87
2023-01-20T03:18:39.731Z,22.60
2023-01-20T03:20:11.003Z,20.32
2023-01-20T03:21:42.206Z,17.49
2023-01-20T03:23:13.522Z,20.66
2023-01-20T03:24:44.735Z,23.23
2023-01-20T03:26:16.052Z,22.81
2023-01-20T03:27:47.653Z,20.27
2023-01-20T03:29:18.819Z,20.19
2023-01-20T03:30:50.085Z,20.05
2023-01-20T03:32:21.596Z,23.71
2023-01-20T03:33:52.902Z,23.80
2023-01-20T03:35:25.559Z,24.00
2023-01-20T03:36:56.800Z,24.69
2023-01-20T03:38:28.240Z,24.40
2023-01-20T03:39:59.778Z,23.71
2023-01-20T03:41:31.304Z,23.02
2023-01-20T03:43:02.898Z,25.84
2023-01-20T03:44:34.385Z,25.65
2023-01-20T03:46:05.891Z,25.78
2023-01-20T03:47:37.351Z,25.61
2023-01-20T03:49:08.529Z,25.77
2023-01-20T03:50:39.852Z,25.78
2023-01-20T03:52:11.198Z,25.90
2023-01-20T03:53:42.570Z,26.16
2023-01-20T03:55:14.259Z,26.69
2023-01-20T03:56:46.255Z,25.14
2023-01-20T03:58:17.943Z,25.18
2023-01-20T03:59:49.319Z,25.97
2023-01-20T04:01:20.751Z,26.07
2023-01-20T04:02:52.091Z,26.41
2023-01-20T04:04:23.983Z,26.63
2023-01-20T04:05:57.413Z,26.28
2023-01-20T04:07:28.588Z,26.45
2023-01-20T04:09:00.106Z,26.53
2023-01-20T04:10:31.431Z,26.01
2023-01-20T04:12:02.787Z,26.36
2023-01-20T04:13:34.384Z,26.72
2023-01-20T04:15:05.746Z,26.78
2023-01-20T04:16:37.400Z,26.27
2023-01-20T04:18:08.853Z,26.84
2023-01-20T04:19:40.068Z,25.88
2023-01-20T04:21:11.430Z,26.70
2023-01-20T04:22:42.980Z,21.54
2023-01-20T04:24:14.126Z,22.15
2023-01-20T04:25:45.453Z,23.73
2023-01-20T04:27:17.030Z,18.25
2023-01-20T04:28:48.286Z,20.18
2023-01-20T04:30:19.879Z,19.47
2023-01-20T04:31:51.080Z,20.99
2023-01-20T04:33:22.605Z,22.41
2023-01-20T04:34:55.577Z,19.33
2023-01-20T04:36:26.793Z,18.90
2023-01-20T04:37:58.181Z,19.99
2023-01-20T04:39:29.364Z,15.91
2023-01-20T04:41:03.387Z,11.40
2023-01-20T04:42:34.934Z,15.88
2023-01-20T04:44:06.091Z,16.57
2023-01-20T04:45:37.407Z,17.28
2023-01-20T04:47:08.677Z,18.55
2023-01-20T04:48:39.871Z,19.38
2023-01-20T04:50:11.128Z,18.31
2023-01-20T04:51:42.549Z,13.70
2023-01-20T04:53:13.834Z,16.44
2023-01-20T04:54:45.608Z,18.01
2023-01-20T04:56:17.307Z,17.41
2023-01-20T04:57:48.478Z,17.56
2023-01-20T04:59:19.779Z,19.15
2023-01-20T05:00:50.963Z,17.48
2023-01-20T05:02:22.475Z,17.73
2023-01-20T05:03:54.222Z,19.85
2023-01-20T05:05:25.908Z,19.95
2023-01-20T05:06:57.206Z,19.57
2023-01-20T05:08:28.902Z,20.04
2023-01-20T05:10:00.300Z,21.63
2023-01-20T05:11:31.709Z,20.76
2023-01-20T05:13:02.952Z,19.88
2023-01-20T05:14:34.351Z,17.65
2023-01-20T05:16:05.625Z,20.12
2023-01-20T05:17:36.949Z,21.11
2023-01-20T05:19:08.112Z,20.72
2023-01-20T05:20:39.418Z,19.71
2023-01-20T05:22:10.911Z,20.92
2023-01-20T05:23:42.210Z,20.90
2023-01-20T05:25:13.629Z,21.52
2023-01-20T05:26:45.127Z,20.24
2023-01-20T05:28:16.546Z,21.41
2023-01-20T05:29:48.326Z,21.34
2023-01-20T05:31:19.744Z,18.90
2023-01-20T05:32:51.369Z,17.13
2023-01-20T05:34:22.906Z,19.09
2023-01-20T05:35:55.976Z,19.33
2023-01-20T05:37:27.563Z,19.87
2023-01-20T05:38:58.986Z,17.92
2023-01-20T05:40:30.355Z,16.28
2023-01-20T05:42:01.882Z,14.70
2023-01-20T05:43:33.152Z,16.69
2023-01-20T05:45:04.658Z,15.65
2023-01-20T05:46:36.079Z,16.87
2023-01-20T05:48:07.393Z,17.10
2023-01-20T05:49:38.902Z,16.95
2023-01-20T05:51:20.500Z,16.76
2023-01-20T05:52:51.982Z,17.10
2023-01-20T05:54:23.695Z,16.30
2023-01-20T05:55:55.239Z,16.59
2023-01-20T05:57:26.584Z,15.63
2023-01-20T05:58:57.854Z,15.32
2023-01-20T06:00:29.042Z,16.27
2023-01-20T06:02:00.263Z,17.16
2023-01-20T06:03:31.663Z,15.95
2023-01-20T06:05:03.092Z,16.23
2023-01-20T06:06:34.522Z,15.71
2023-01-20T06:08:05.980Z,16.08
2023-01-20T06:09:37.304Z,15.96
2023-01-20T06:11:08.429Z,16.15
2023-01-20T06:12:39.703Z,16.56
2023-01-20T06:14:10.974Z,16.88
2023-01-20T06:15:47.493Z,17.20
2023-01-20T06:17:19.288Z,18.12
2023-01-20T06:18:50.591Z,17.83
2023-01-20T06:20:27.036Z,18.46
2023-01-20T06:21:58.439Z,18.98
2023-01-20T06:23:29.673Z,19.54
2023-01-20T06:25:01.324Z,19.55
2023-01-20T06:26:32.678Z,19.36
2023-01-20T06:28:04.271Z,19.25
2023-01-20T06:29:35.748Z,19.33
2023-01-20T06:31:07.165Z,19.33
2023-01-20T06:32:38.562Z,20.36
2023-01-20T06:34:09.721Z,20.17
2023-01-20T06:35:41.356Z,20.09
2023-01-20T06:37:12.786Z,20.31
2023-01-20T06:38:44.135Z,20.24
2023-01-20T06:40:15.762Z,19.75
2023-01-20T06:41:47.073Z,20.57
2023-01-20T06:43:18.439Z,20.79
2023-01-20T06:44:50.017Z,21.42
2023-01-20T06:46:21.241Z,21.10
2023-01-20T06:47:53.340Z,20.43
2023-01-20T06:49:24.760Z,21.43
2023-01-20T06:50:56.086Z,21.93
2023-01-20T06:52:27.480Z,21.89
2023-01-20T06:53:58.839Z,22.46
2023-01-20T06:55:30.085Z,22.71
2023-01-20T06:57:35.076Z,22.78
2023-01-20T06:59:06.544Z,22.47
2023-01-20T07:00:38.149Z,22.01
2023-01-20T07:02:09.551Z,21.72
2023-01-20T07:03:40.949Z,20.29
2023-01-20T07:05:12.940Z,19.69
2023-01-20T07:06:44.646Z,20.10
2023-01-20T07:08:16.339Z,20.28
2023-01-20T07:09:47.972Z,19.36
2023-01-20T07:11:19.330Z,18.92
2023-01-20T07:12:50.732Z,19.83
2023-01-20T07:14:21.905Z,16.70
2023-01-20T07:15:53.504Z,16.84
2023-01-20T07:17:24.767Z,17.25
2023-01-20T07:18:56.185Z,18.11
2023-01-20T07:20:27.472Z,17.26
2023-01-20T07:21:59.193Z,17.50
2023-01-20T07:23:30.462Z,17.84
2023-01-20T07:25:04.626Z,17.02
2023-01-20T07:26:36.041Z,17.14
2023-01-20T07:28:07.248Z,17.35
2023-01-20T07:29:38.525Z,17.46
2023-01-20T07:31:09.749Z,17.48
2023-01-20T07:32:41.274Z,17.38
2023-01-20T07:34:12.443Z,17.11
2023-01-20T07:35:44.098Z,16.62
2023-01-20T07:37:15.540Z,16.39
2023-01-20T07:38:47.300Z,16.67
2023-01-20T07:40:18.707Z,17.23
2023-01-20T07:41:50.602Z,17.51
2023-01-20T07:43:21.794Z,17.42
2023-01-20T07:44:53.197Z,16.70
2023-01-20T07:46:24.517Z,17.42
2023-01-20T07:47:55.794Z,16.69
2023-01-20T07:49:27.187Z,16.97
2023-01-20T07:50:58.376Z,16.60
2023-01-20T07:52:29.897Z,16.94
2023-01-20T07:54:01.358Z,17.27
2023-01-20T07:55:32.598Z,17.57
2023-01-20T07:57:03.944Z,18.03
2023-01-20T07:58:35.383Z,17.88
2023-01-20T08:00:06.612Z,18.46
2023-01-20T08:01:38.229Z,17.63
2023-01-20T08:03:09.720Z,18.44
2023-01-20T08:04:41.429Z,18.75
2023-01-20T08:06:12.721Z,18.64
2023-01-20T08:07:44.156Z,19.02
2023-01-20T08:09:15.446Z,18.72
2023-01-20T08:10:46.965Z,19.46
2023-01-20T08:12:18.351Z,19.70
2023-01-20T08:13:54.752Z,19.10
2023-01-20T08:15:25.991Z,19.26
2023-01-20T08:16:57.484Z,19.18
2023-01-20T08:18:29.568Z,20.11
2023-01-20T08:20:01.180Z,19.86
2023-01-20T08:21:32.740Z,20.28
2023-01-20T08:23:04.038Z,21.03
2023-01-20T08:24:35.399Z,20.94
2023-01-20T08:26:07.169Z,20.34
2023-01-20T08:27:38.641Z,21.54
2023-01-20T08:29:10.098Z,21.03
2023-01-20T08:30:42.309Z,21.24
2023-01-20T08:32:14.460Z,21.65
2023-01-20T08:33:45.850Z,21.93
2023-01-20T08:35:17.621Z,22.13
2023-01-20T08:36:49.100Z,22.12
2023-01-20T08:38:20.444Z,21.92
2023-01-20T08:39:51.918Z,21.71
2023-01-20T08:41:23.453Z,21.48
2023-01-20T08:42:55.840Z,21.32
2023-01-20T08:44:28.232Z,21.66
2023-01-20T08:45:59.983Z,21.52
2023-01-20T08:47:31.504Z,18.54
2023-01-20T08:49:02.850Z,18.03
2023-01-20T08:50:34.400Z,19.61
2023-01-20T08:52:06.000Z,18.66
2023-01-20T08:53:37.713Z,19.49
2023-01-20T08:55:09.026Z,17.85
2023-01-20T08:57:28.417Z,18.14
2023-01-20T08:58:59.975Z,15.17
2023-01-20T09:00:31.648Z,16.25
2023-01-20T09:02:02.841Z,18.03
2023-01-20T09:03:34.278Z,17.89
2023-01-20T09:05:06.093Z,17.77
2023-01-20T09:06:37.691Z,16.97
2023-01-20T09:08:08.869Z,17.77
2023-01-20T09:09:40.244Z,17.28
2023-01-20T09:11:12.123Z,16.61
2023-01-20T09:12:43.811Z,16.37
2023-01-20T09:14:15.331Z,15.42
2023-01-20T09:15:46.798Z,16.25
2023-01-20T09:17:18.113Z,15.93
2023-01-20T09:18:49.436Z,16.09
2023-01-20T09:20:20.934Z,15.57
2023-01-20T09:21:52.376Z,16.06
2023-01-20T09:23:23.704Z,17.96
2023-01-20T09:24:55.003Z,23.44
2023-01-20T09:26:34.982Z,20.22
2023-01-20T09:28:08.681Z,15.25
2023-01-20T09:29:40.450Z,16.66
2023-01-20T09:31:11.997Z,15.33
2023-01-20T09:32:43.301Z,14.41
2023-01-20T09:34:15.589Z,14.72
2023-01-20T09:35:47.678Z,12.54
2023-01-20T09:37:19.231Z,12.83
2023-01-20T09:38:50.537Z,12.80
2023-01-20T09:40:22.283Z,12.02
2023-01-20T09:41:53.822Z,12.37
2023-01-20T09:43:25.297Z,12.13
2023-01-20T09:44:56.937Z,9.96
2023-01-20T09:46:28.774Z,11.85
2023-01-20T09:48:00.627Z,12.37
2023-01-20T09:49:32.221Z,12.73
2023-01-20T09:51:03.885Z,12.74
2023-01-20T09:52:35.250Z,13.33
2023-01-20T09:54:06.524Z,13.05
2023-01-20T09:55:37.805Z,13.31
2023-01-20T09:57:09.247Z,12.87
2023-01-20T09:58:40.484Z,12.13
2023-01-20T10:00:12.271Z,11.43
2023-01-20T10:01:44.128Z,11.82
2023-01-20T10:03:15.572Z,13.74
2023-01-20T10:04:46.863Z,13.43
2023-01-20T10:06:18.734Z,13.41
2023-01-20T10:07:50.461Z,13.54
2023-01-20T10:09:21.918Z,12.09
2023-01-20T10:10:53.345Z,11.21
2023-01-20T10:12:25.006Z,11.65
2023-01-20T10:13:56.387Z,11.20
2023-01-20T10:15:27.843Z,10.76
2023-01-20T10:16:59.282Z,11.50
2023-01-20T10:18:30.545Z,10.06
2023-01-20T10:20:02.092Z,10.66
2023-01-20T10:21:33.402Z,11.04
2023-01-20T10:23:04.615Z,11.60
2023-01-20T10:24:35.969Z,11.93
2023-01-20T10:26:07.179Z,11.86
2023-01-20T10:27:38.773Z,11.12
2023-01-20T10:29:10.123Z,9.95
2023-01-20T10:30:41.716Z,10.00
2023-01-20T10:32:13.314Z,10.66
2023-01-20T10:33:44.788Z,11.09
2023-01-20T10:35:16.427Z,11.38
2023-01-20T10:36:48.636Z,9.89
2023-01-20T10:38:20.179Z,9.82
2023-01-20T10:39:51.628Z,10.66
2023-01-20T10:41:22.871Z,9.93
2023-01-20T10:42:54.173Z,10.66
2023-01-20T10:44:25.748Z,10.73
2023-01-20T10:45:56.937Z,10.43
2023-01-20T10:47:28.362Z,10.05
2023-01-20T10:48:59.674Z,9.96
2023-01-20T10:50:30.886Z,10.56
2023-01-20T10:52:02.464Z,10.74
2023-01-20T10:53:33.988Z,9.33
2023-01-20T10:55:05.623Z,9.51
2023-01-20T10:56:37.046Z,9.01
2023-01-20T10:58:08.252Z,9.20
2023-01-20T10:59:39.758Z,9.76
2023-01-20T11:01:10.991Z,9.09
2023-01-20T11:02:42.284Z,8.36
2023-01-20T11:04:13.467Z,8.58
2023-01-20T11:05:44.675Z,8.46
2023-01-20T11:07:16.025Z,8.23
2023-01-20T11:08:47.338Z,7.34
2023-01-20T11:10:18.612Z,7.99
2023-01-20T11:11:50.150Z,8.17
2023-01-20T11:13:21.705Z,7.58
2023-01-20T11:14:53.592Z,8.52
2023-01-20T11:16:25.121Z,8.04
2023-01-20T11:17:56.709Z,8.53
2023-01-20T11:19:28.162Z,8.16
2023-01-20T11:20:59.539Z,7.85
2023-01-20T11:22:30.778Z,7.57
2023-01-20T11:24:02.253Z,7.86
2023-01-20T11:25:33.725Z,7.47
2023-01-20T11:27:05.344Z,7.44
2023-01-20T11:28:36.758Z,6.90
2023-01-20T11:30:08.565Z,7.27
2023-01-20T11:31:40.166Z,7.28
2023-01-20T11:33:11.464Z,7.27
2023-01-20T11:34:42.798Z,7.20
2023-01-20T11:36:14.195Z,7.79
2023-01-20T11:37:50.517Z,7.40
2023-01-20T11:39:22.150Z,8.16
2023-01-20T11:40:53.420Z,8.15
2023-01-20T11:42:25.381Z,7.48
2023-01-20T11:43:57.008Z,6.94
2023-01-20T11:45:28.547Z,7.44
2023-01-20T11:46:59.939Z,7.06
2023-01-20T11:48:31.615Z,6.12
2023-01-20T11:50:02.955Z,6.08
2023-01-20T11:51:34.273Z,6.57
2023-01-20T11:53:05.747Z,5.89
2023-01-20T11:54:37.354Z,6.11
2023-01-20T11:56:09.996Z,5.85
2023-01-20T11:57:41.398Z,6.41
2023-01-20T11:59:12.938Z,6.65
2023-01-20T12:00:44.498Z,6.84
2023-01-20T12:02:15.905Z,6.29
2023-01-20T12:03:47.476Z,6.00
2023-01-20T12:05:18.969Z,6.04
2023-01-20T12:06:50.339Z,5.96
2023-01-20T12:08:21.942Z,5.64
2023-01-20T12:09:53.315Z,5.76
2023-01-20T12:11:24.524Z,5.12
2023-01-20T12:12:56.376Z,5.76
2023-01-20T12:14:28.302Z,5.36
2023-01-20T12:15:59.936Z,4.97
2023-01-20T12:17:31.424Z,4.95
2023-01-20T12:19:03.241Z,4.60
2023-01-20T12:20:42.451Z,4.77
2023-01-20T12:22:17.160Z,5.21
2023-01-20T12:23:48.663Z,5.19
2023-01-20T12:25:20.021Z,5.37
2023-01-20T12:26:51.266Z,4.82
2023-01-20T12:28:22.491Z,5.03
2023-01-20T12:29:53.808Z,5.40
2023-01-20T12:31:25.215Z,4.93
2023-01-20T12:32:56.675Z,5.17
2023-01-20T12:34:28.146Z,5.27
2023-01-20T12:36:00.955Z,5.30
2023-01-20T12:37:34.064Z,5.36
2023-01-20T12:39:05.414Z,5.72
2023-01-20T12:40:36.748Z,5.58
2023-01-20T12:42:08.432Z,5.42
2023-01-20T12:43:39.780Z,5.58
2023-01-20T12:45:11.234Z,5.65
2023-01-20T12:46:42.496Z,5.80
2023-01-20T12:48:14.006Z,6.38
2023-01-20T12:49:45.398Z,6.38
2023-01-20T12:51:17.017Z,6.36
2023-01-20T12:52:48.291Z,5.86
2023-01-20T12:54:19.659Z,6.02
2023-01-20T12:55:50.877Z,6.79
2023-01-20T12:57:22.149Z,6.32
2023-01-20T12:58:53.399Z,6.08
2023-01-20T13:00:24.686Z,6.64
2023-01-20T13:01:55.943Z,6.15
2023-01-20T13:03:27.243Z,5.84
2023-01-20T13:04:58.640Z,5.90
2023-01-20T13:06:29.881Z,5.53
2023-01-20T13:08:01.339Z,5.43
2023-01-20T13:09:32.703Z,5.80
2023-01-20T13:11:05.571Z,5.76
2023-01-20T13:12:36.921Z,5.92
2023-01-20T13:14:08.229Z,5.87
2023-01-20T13:15:39.718Z,5.81
2023-01-20T13:17:11.056Z,5.73
2023-01-20T13:19:21.905Z,6.19
2023-01-20T13:20:53.409Z,5.49
2023-01-20T13:22:24.670Z,5.59
2023-01-20T13:23:56.000Z,5.70
2023-01-20T13:25:27.281Z,5.64
2023-01-20T13:26:58.727Z,5.67
2023-01-20T13:28:30.067Z,5.85
2023-01-20T13:30:01.366Z,5.79
2023-01-20T13:31:32.866Z,5.75
2023-01-20T13:33:04.900Z,6.04
2023-01-20T13:34:37.706Z,5.93
2023-01-20T13:36:09.715Z,6.06
2023-01-20T13:37:42.241Z,6.28
2023-01-20T13:39:13.604Z,5.85
2023-01-20T13:40:45.230Z,5.77
2023-01-20T13:42:16.442Z,5.60
2023-01-20T13:43:47.765Z,5.48
2023-01-20T13:45:19.386Z,5.62
2023-01-20T13:46:50.923Z,6.17
2023-01-20T13:48:22.412Z,6.02
2023-01-20T13:49:53.938Z,6.82
2023-01-20T13:51:25.804Z,6.42
2023-01-20T13:52:58.305Z,6.36
2023-01-20T13:54:29.635Z,6.07
2023-01-20T13:56:00.977Z,5.55
2023-01-20T13:57:32.215Z,6.16
2023-01-20T13:59:03.474Z,6.04
2023-01-20T14:00:34.764Z,6.14
2023-01-20T14:02:06.087Z,5.91
2023-01-20T14:03:37.440Z,6.04
2023-01-20T14:05:10.000Z,6.09
2023-01-20T14:06:41.295Z,6.27
2023-01-20T14:08:12.528Z,5.95
2023-01-20T14:09:43.824Z,6.33
2023-01-20T14:11:15.371Z,5.90
2023-01-20T14:12:46.852Z,6.46
2023-01-20T14:14:18.204Z,6.79
2023-01-20T14:15:49.657Z,6.38
2023-01-20T14:17:21.128Z,6.52
2023-01-20T14:18:52.374Z,6.56
2023-01-20T14:20:23.689Z,6.65
2023-01-20T14:21:55.298Z,6.38
2023-01-20T14:23:26.753Z,6.80
2023-01-20T14:24:58.154Z,7.00
2023-01-20T14:26:29.512Z,6.66
2023-01-20T14:28:00.734Z,6.06
2023-01-20T14:29:32.177Z,6.41
2023-01-20T14:31:03.507Z,6.47
2023-01-20T14:32:34.926Z,6.57
2023-01-20T14:34:07.008Z,6.60
2023-01-20T14:35:39.423Z,6.72
2023-01-20T14:37:12.134Z,6.87
2023-01-20T14:38:56.430Z,6.90
2023-01-20T14:40:28.464Z,6.75
2023-01-20T14:42:00.121Z,7.45
2023-01-20T14:43:31.579Z,7.31
2023-01-20T14:45:02.894Z,6.93
2023-01-20T14:46:34.391Z,7.21
2023-01-20T14:48:05.739Z,7.08
2023-01-20T14:49:37.433Z,6.76
2023-01-20T14:51:10.475Z,6.94
2023-01-20T14:52:43.418Z,6.89
2023-01-20T14:54:14.698Z,6.78
2023-01-20T14:55:45.894Z,7.10
2023-01-20T14:57:17.407Z,7.03
2023-01-20T14:58:48.952Z,6.91
2023-01-20T15:00:20.485Z,7.29
2023-01-20T15:01:51.910Z,7.09
2023-01-20T15:03:23.226Z,6.99
2023-01-20T15:04:54.631Z,7.50
2023-01-20T15:06:26.103Z,6.99
2023-01-20T15:07:57.355Z,7.18
2023-01-20T15:09:33.765Z,7.13
2023-01-20T15:11:05.055Z,7.29
2023-01-20T15:12:36.683Z,7.73
2023-01-20T15:14:07.889Z,7.93
2023-01-20T15:15:39.290Z,7.75
2023-01-20T15:17:10.788Z,7.65
2023-01-20T15:18:42.295Z,7.18
2023-01-20T15:20:14.001Z,7.24
2023-01-20T15:21:45.832Z,7.26
2023-01-20T15:23:17.196Z,7.27
2023-01-20T15:24:48.523Z,7.19
2023-01-20T15:26:20.153Z,7.13
2023-01-20T15:27:51.564Z,6.74
2023-01-20T15:29:23.063Z,7.12
2023-01-20T15:30:54.476Z,7.40
2023-01-20T15:32:26.182Z,7.26
2023-01-20T15:34:26.967Z,7.32
2023-01-20T15:35:58.674Z,7.12
2023-01-20T15:37:30.693Z,7.07
2023-01-20T15:39:02.597Z,6.50
2023-01-20T15:40:34.514Z,7.34
2023-01-20T15:42:06.733Z,7.06
2023-01-20T15:43:38.481Z,7.19
2023-01-20T15:45:09.917Z,7.34
2023-01-20T15:46:46.773Z,6.70
2023-01-20T15:48:18.812Z,6.45
2023-01-20T15:49:50.227Z,6.81
2023-01-20T15:51:26.813Z,6.81
2023-01-20T15:52:58.268Z,6.64
2023-01-20T15:54:29.711Z,6.69
2023-01-20T15:56:01.868Z,6.74
2023-01-20T15:57:33.438Z,6.55
2023-01-20T15:59:05.282Z,7.10
2023-01-20T16:00:37.021Z,6.86
2023-01-20T16:02:08.463Z,6.95
2023-01-20T16:03:40.463Z,6.96
2023-01-20T16:05:15.246Z,6.67
2023-01-20T16:06:47.885Z,6.90
2023-01-20T16:08:19.427Z,7.25
2023-01-20T16:09:51.577Z,7.28
2023-01-20T16:11:24.030Z,7.40
2023-01-20T16:13:02.927Z,7.09
2023-01-20T16:14:44.710Z,7.53
2023-01-20T16:16:16.644Z,7.80
2023-01-20T16:18:15.628Z,7.18
2023-01-20T16:19:47.777Z,7.57
2023-01-20T16:21:24.396Z,7.46
2023-01-20T16:22:55.707Z,7.38
2023-01-20T16:24:27.221Z,7.75
2023-01-20T16:25:58.526Z,7.58
2023-01-20T16:27:30.171Z,7.93
2023-01-20T16:29:01.514Z,7.73
2023-01-20T16:30:33.011Z,7.89
2023-01-20T16:32:04.274Z,7.70
2023-01-20T16:33:35.867Z,7.83
2023-01-20T16:35:07.426Z,8.38
2023-01-20T16:36:38.788Z,8.43
2023-01-20T16:38:10.165Z,8.52
2023-01-20T16:39:41.442Z,8.52
2023-01-20T16:41:12.887Z,8.15
2023-01-20T16:42:44.635Z,8.45
2023-01-20T16:44:15.939Z,8.58
2023-01-20T16:45:47.460Z,9.05
2023-01-20T16:47:18.895Z,8.78
2023-01-20T16:48:50.107Z,8.67
2023-01-20T16:50:21.433Z,9.01
2023-01-20T16:51:52.728Z,9.72
2023-01-20T16:53:23.973Z,8.78
2023-01-20T16:54:55.595Z,9.53
2023-01-20T16:56:26.976Z,9.60
2023-01-20T16:57:58.689Z,9.19
2023-01-20T16:59:30.239Z,9.25
2023-01-20T17:01:01.722Z,9.74
2023-01-20T17:02:32.936Z,10.23
2023-01-20T17:04:04.468Z,9.73
2023-01-20T17:05:36.046Z,10.02
2023-01-20T17:07:07.471Z,9.82
2023-01-20T17:08:38.932Z,9.66
2023-01-20T17:10:10.408Z,9.46
2023-01-20T17:11:41.781Z,10.04
2023-01-20T17:13:13.074Z,9.87
2023-01-20T17:14:44.430Z,9.58
2023-01-20T17:16:16.068Z,9.65
2023-01-20T17:17:47.647Z,9.76
2023-01-20T17:19:18.996Z,9.83
2023-01-20T17:20:50.608Z,9.86
2023-01-20T17:22:21.754Z,9.91
2023-01-20T17:23:53.090Z,9.83
2023-01-20T17:25:25.943Z,9.99
2023-01-20T17:26:57.276Z,9.97
2023-01-20T17:28:28.606Z,10.65
2023-01-20T17:29:59.958Z,11.39
2023-01-20T17:31:31.436Z,11.24
2023-01-20T17:33:02.806Z,11.20
2023-01-20T17:34:34.025Z,10.88
2023-01-20T17:36:10.427Z,11.00
2023-01-20T17:37:41.965Z,11.05
2023-01-20T17:39:13.433Z,10.61
2023-01-20T17:40:44.963Z,10.94
2023-01-20T17:42:17.682Z,10.82
2023-01-20T17:43:54.189Z,11.06
2023-01-20T17:45:26.287Z,11.06
2023-01-20T17:47:07.537Z,11.18
2023-01-20T17:48:39.199Z,11.37
2023-01-20T17:50:10.369Z,11.51
2023-01-20T17:51:41.684Z,12.17
2023-01-20T17:53:12.981Z,12.19
2023-01-20T17:54:44.835Z,12.54
2023-01-20T17:56:16.063Z,12.46
2023-01-20T17:57:47.381Z,11.90
2023-01-20T17:59:23.979Z,11.79
2023-01-20T18:00:55.242Z,12.23
2023-01-20T18:02:26.754Z,11.37
2023-01-20T18:03:58.236Z,11.59
2023-01-20T18:05:30.004Z,11.09
2023-01-20T18:07:01.488Z,11.22
2023-01-20T18:08:32.682Z,12.12
2023-01-20T18:10:03.981Z,11.76
2023-01-20T18:11:35.325Z,11.53
2023-01-20T18:13:06.989Z,11.93
2023-01-20T18:14:38.416Z,11.91
2023-01-20T18:16:09.680Z,12.42
2023-01-20T18:17:40.918Z,12.20
2023-01-20T18:19:12.355Z,12.28
2023-01-20T18:20:43.624Z,12.06
2023-01-20T18:22:15.004Z,11.90
2023-01-20T18:23:46.396Z,12.67
2023-01-20T18:25:17.795Z,12.29
2023-01-20T18:26:49.304Z,11.90
2023-01-20T18:28:20.815Z,12.25
2023-01-20T18:29:52.353Z,12.24
2023-01-20T18:31:23.852Z,12.79
2023-01-20T18:32:55.374Z,13.07
2023-01-20T18:34:26.782Z,12.69
2023-01-20T18:35:58.601Z,12.87
2023-01-20T18:37:30.160Z,13.30
2023-01-20T18:39:01.449Z,13.56
2023-01-20T18:40:32.754Z,14.12
2023-01-20T18:42:04.235Z,14.72
2023-01-20T18:43:35.782Z,15.71
2023-01-20T18:45:07.319Z,16.80
2023-01-20T18:46:38.694Z,15.35
2023-01-20T18:48:10.051Z,15.12
2023-01-20T18:49:41.265Z,14.36
2023-01-20T18:51:12.749Z,14.45
2023-01-20T18:52:44.069Z,13.32
2023-01-20T18:54:15.682Z,12.90
2023-01-20T18:55:47.372Z,13.78
2023-01-20T18:57:18.678Z,13.56
2023-01-20T18:58:49.953Z,13.11
2023-01-20T19:00:21.479Z,13.76
2023-01-20T19:01:52.779Z,13.91
2023-01-20T19:03:23.940Z,14.42
2023-01-20T19:04:55.287Z,15.03
2023-01-20T19:06:26.867Z,13.88
2023-01-20T19:07:58.335Z,14.34
2023-01-20T19:09:29.907Z,14.20
2023-01-20T19:11:01.325Z,15.34
2023-01-20T19:12:32.847Z,18.56
2023-01-20T19:14:04.445Z,19.38
2023-01-20T19:15:36.352Z,17.74
2023-01-20T19:17:07.549Z,15.83
2023-01-20T19:18:38.935Z,16.49
2023-01-20T19:20:10.221Z,15.78
2023-01-20T19:21:41.521Z,15.52
2023-01-20T19:23:12.868Z,16.03
2023-01-20T19:24:44.292Z,15.95
2023-01-20T19:26:17.008Z,16.31
2023-01-20T19:27:48.829Z,15.82
2023-01-20T19:29:20.339Z,15.46
2023-01-20T19:30:51.799Z,15.86
2023-01-20T19:32:23.327Z,15.30
2023-01-20T19:33:54.603Z,15.57
2023-01-20T19:35:25.908Z,15.42
2023-01-20T19:36:57.722Z,15.92
2023-01-20T19:38:29.192Z,15.86
2023-01-20T19:40:00.724Z,16.06
2023-01-20T19:41:31.995Z,15.18
2023-01-20T19:43:03.351Z,15.52
2023-01-20T19:44:34.988Z,15.68
2023-01-20T19:46:06.504Z,15.63
2023-01-20T19:47:39.005Z,15.93
2023-01-20T19:49:12.771Z,16.28
2023-01-20T19:50:49.638Z,16.56
2023-01-20T19:52:22.155Z,16.14
2023-01-20T19:53:53.466Z,18.21
2023-01-20T19:55:25.014Z,16.94
2023-01-20T19:56:56.425Z,16.00